createdAt,value
2018-07-04T00:00:41.936Z,19.23
2018-07-04T00:01:42.068Z,19.22
2018-07-04T00:02:42.207Z,19.24
2018-07-04T00:03:42.396Z,19.26
2018-07-04T00:04:42.504Z,19.26
2018-07-04T00:05:42.685Z,19.22
2018-07-04T00:06:42.841Z,19.30
2018-07-04T00:07:42.978Z,19.15
2018-07-04T00:08:43.118Z,19.22
2018-07-04T00:09:43.256Z,19.24
2018-07-04T00:10:43.426Z,19.24
2018-07-04T00:11:43.566Z,19.17
2018-07-04T00:12:43.703Z,19.17
2018-07-04T00:13:43.850Z,19.16
2018-07-04T00:14:44.002Z,19.15
2018-07-04T00:15:44.133Z,19.16
2018-07-04T00:16:44.270Z,19.09
2018-07-04T00:17:44.417Z,19.04
2018-07-04T00:18:44.553Z,18.97
2018-07-04T00:19:44.684Z,19.01
2018-07-04T00:20:44.831Z,19.01
2018-07-04T00:21:44.974Z,18.93
2018-07-04T00:22:45.112Z,18.98
2018-07-04T00:23:45.249Z,18.94
2018-07-04T00:24:45.393Z,18.97
2018-07-04T00:25:45.537Z,18.88
2018-07-04T00:26:45.655Z,18.86
2018-07-04T00:27:45.800Z,18.78
2018-07-04T00:28:45.936Z,18.83
2018-07-04T00:29:46.106Z,18.76
2018-07-04T00:30:46.235Z,18.67
2018-07-04T00:31:46.375Z,18.71
2018-07-04T00:32:46.542Z,18.66
2018-07-04T00:33:46.677Z,18.71
2018-07-04T00:34:46.821Z,18.70
2018-07-04T00:35:46.956Z,18.67
2018-07-04T00:36:47.116Z,18.67
2018-07-04T00:37:47.227Z,18.71
2018-07-04T00:38:47.365Z,18.70
2018-07-04T00:39:47.524Z,18.64
2018-07-04T00:40:47.658Z,18.64
2018-07-04T00:41:47.792Z,18.76
2018-07-04T00:42:47.950Z,18.61
2018-07-04T00:43:48.088Z,18.58
2018-07-04T00:44:48.231Z,18.57
2018-07-04T00:45:48.362Z,18.63
2018-07-04T00:46:48.527Z,18.56
2018-07-04T00:47:48.666Z,18.60
2018-07-04T00:48:48.809Z,18.58
2018-07-04T00:49:48.959Z,18.58
2018-07-04T00:50:49.085Z,18.66
2018-07-04T00:51:49.220Z,18.51
2018-07-04T00:52:49.357Z,18.61
2018-07-04T00:53:49.492Z,18.48
2018-07-04T00:54:49.739Z,18.39
2018-07-04T00:55:49.790Z,18.46
2018-07-04T00:56:49.931Z,18.42
2018-07-04T00:57:50.072Z,18.51
2018-07-04T00:58:50.237Z,18.45
2018-07-04T00:59:50.358Z,18.46
2018-07-04T01:00:50.502Z,18.41
2018-07-04T01:01:50.647Z,18.39
2018-07-04T01:02:50.810Z,18.42
2018-07-04T01:03:50.949Z,18.34
2018-07-04T01:04:51.084Z,18.42
2018-07-04T01:05:51.225Z,18.33
2018-07-04T01:06:51.406Z,18.38
2018-07-04T01:07:51.521Z,18.28
2018-07-04T01:08:51.659Z,18.24
2018-07-04T01:09:51.867Z,18.28
2018-07-04T01:10:51.948Z,18.23
2018-07-04T01:11:52.085Z,18.21
2018-07-04T01:12:52.252Z,18.23
2018-07-04T01:13:52.385Z,18.15
2018-07-04T01:14:52.527Z,18.13
2018-07-04T01:15:52.671Z,18.08
2018-07-04T01:16:52.836Z,18.06
2018-07-04T01:17:52.959Z,18.13
2018-07-04T01:18:53.096Z,18.08
2018-07-04T01:19:53.238Z,18.11
2018-07-04T01:20:53.382Z,18.03
2018-07-04T01:21:53.523Z,18.06
2018-07-04T01:22:53.657Z,18.06
2018-07-04T01:23:53.797Z,18.05
2018-07-04T01:24:53.936Z,18.03
2018-07-04T01:25:54.075Z,18.05
2018-07-04T01:26:54.217Z,18.05
2018-07-04T01:27:54.359Z,18.02
2018-07-04T01:28:54.564Z,17.86
2018-07-04T01:29:55.300Z,17.91
2018-07-04T01:32:26.990Z,17.91
2018-07-04T01:33:27.126Z,17.99
2018-07-04T01:34:27.269Z,17.84
2018-07-04T01:35:27.406Z,17.93
2018-07-04T01:36:27.544Z,17.93
2018-07-04T01:37:27.685Z,17.78
2018-07-04T01:38:27.819Z,17.90
2018-07-04T01:39:27.967Z,17.90
2018-07-04T01:40:28.101Z,17.94
2018-07-04T01:41:28.241Z,17.88
2018-07-04T01:42:28.374Z,17.91
2018-07-04T01:43:28.509Z,17.87
2018-07-04T01:44:28.650Z,17.91
2018-07-04T01:45:28.785Z,17.88
2018-07-04T01:46:28.925Z,17.90
2018-07-04T01:47:29.065Z,17.81
2018-07-04T01:48:29.198Z,17.91
2018-07-04T01:49:29.341Z,17.91
2018-07-04T01:50:29.487Z,17.84
2018-07-04T01:51:29.628Z,17.81
2018-07-04T01:52:29.761Z,17.86
2018-07-04T01:53:29.897Z,17.73
2018-07-04T01:54:30.038Z,17.73
2018-07-04T01:55:30.173Z,17.73
2018-07-04T01:56:30.309Z,17.66
2018-07-04T01:57:30.449Z,17.57
2018-07-04T01:58:31.241Z,17.52
2018-07-04T01:59:30.782Z,17.47
2018-07-04T02:00:30.924Z,17.39
2018-07-04T02:01:31.137Z,17.39
2018-07-04T02:02:31.152Z,17.24
2018-07-04T02:03:31.285Z,17.27
2018-07-04T02:04:31.419Z,17.31
2018-07-04T02:05:31.558Z,17.27
2018-07-04T02:06:31.695Z,17.20
2018-07-04T02:07:31.832Z,17.25
2018-07-04T02:08:31.974Z,17.24
2018-07-04T02:09:32.114Z,17.35
2018-07-04T02:10:32.254Z,17.25
2018-07-04T02:11:32.386Z,17.25
2018-07-04T02:12:32.532Z,17.34
2018-07-04T02:13:32.665Z,17.24
2018-07-04T02:14:32.807Z,17.30
2018-07-04T02:15:32.946Z,17.27
2018-07-04T02:16:33.092Z,17.27
2018-07-04T02:17:33.233Z,17.25
2018-07-04T02:18:33.368Z,17.25
2018-07-04T02:19:33.506Z,17.24
2018-07-04T02:20:33.647Z,17.20
2018-07-04T02:21:33.784Z,17.20
2018-07-04T02:22:33.926Z,17.19
2018-07-04T02:23:34.069Z,17.24
2018-07-04T02:24:34.204Z,17.22
2018-07-04T02:25:34.339Z,17.25
2018-07-04T02:26:34.479Z,17.27
2018-07-04T02:27:34.650Z,17.31
2018-07-04T02:28:34.835Z,17.27
2018-07-04T02:29:34.961Z,17.28
2018-07-04T02:30:35.096Z,17.27
2018-07-04T02:31:35.231Z,17.32
2018-07-04T02:32:35.395Z,17.34
2018-07-04T02:33:35.525Z,17.34
2018-07-04T02:34:35.661Z,17.28
2018-07-04T02:35:35.800Z,17.28
2018-07-04T02:36:35.956Z,17.24
2018-07-04T02:37:36.072Z,17.31
2018-07-04T02:38:36.212Z,17.27
2018-07-04T02:39:36.353Z,17.32
2018-07-04T02:40:36.515Z,17.32
2018-07-04T02:41:36.643Z,17.31
2018-07-04T02:42:37.758Z,17.30
2018-07-04T02:43:36.918Z,17.25
2018-07-04T02:44:37.049Z,17.24
2018-07-04T02:45:37.747Z,17.24
2018-07-04T02:46:37.310Z,17.22
2018-07-04T02:47:37.438Z,17.27
2018-07-04T02:48:37.574Z,17.28
2018-07-04T02:49:37.725Z,17.17
2018-07-04T02:50:37.869Z,17.20
2018-07-04T02:51:38.009Z,17.17
2018-07-04T02:52:38.202Z,17.12
2018-07-04T02:53:38.318Z,17.16
2018-07-04T02:54:38.460Z,17.17
2018-07-04T02:55:38.599Z,17.16
2018-07-04T02:56:38.737Z,17.22
2018-07-04T02:57:38.875Z,17.19
2018-07-04T02:58:39.010Z,17.22
2018-07-04T02:59:39.149Z,17.20
2018-07-04T03:00:39.309Z,17.19
2018-07-04T03:01:39.437Z,17.22
2018-07-04T03:02:39.573Z,17.22
2018-07-04T03:03:39.713Z,17.16
2018-07-04T03:04:39.865Z,17.16
2018-07-04T03:05:39.999Z,17.12
2018-07-04T03:06:40.129Z,17.10
2018-07-04T03:07:40.264Z,17.19
2018-07-04T03:08:40.412Z,17.10
2018-07-04T03:09:40.573Z,17.13
2018-07-04T03:10:40.711Z,16.98
2018-07-04T03:11:40.848Z,17.10
2018-07-04T03:12:41.067Z,17.07
2018-07-04T03:13:41.143Z,17.06
2018-07-04T03:14:41.283Z,17.06
2018-07-04T03:15:41.416Z,17.02
2018-07-04T03:16:41.546Z,17.01
2018-07-04T03:17:41.688Z,17.01
2018-07-04T03:18:41.823Z,16.94
2018-07-04T03:19:41.961Z,16.91
2018-07-04T03:20:42.102Z,16.95
2018-07-04T03:21:42.232Z,16.97
2018-07-04T03:22:42.377Z,16.95
2018-07-04T03:23:42.525Z,16.94
2018-07-04T03:24:42.691Z,16.82
2018-07-04T03:25:42.821Z,16.95
2018-07-04T03:26:42.968Z,16.94
2018-07-04T03:27:43.125Z,16.87
2018-07-04T03:28:43.259Z,16.87
2018-07-04T03:29:43.399Z,16.88
2018-07-04T03:30:43.585Z,16.83
2018-07-04T03:31:43.694Z,16.82
2018-07-04T03:32:43.832Z,16.91
2018-07-04T03:33:43.973Z,16.82
2018-07-04T03:34:44.107Z,16.80
2018-07-04T03:35:44.240Z,16.79
2018-07-04T03:36:44.374Z,16.77
2018-07-04T03:37:44.515Z,16.76
2018-07-04T03:38:44.651Z,16.70
2018-07-04T03:39:44.821Z,16.77
2018-07-04T03:40:44.958Z,16.76
2018-07-04T03:41:45.098Z,16.79
2018-07-04T03:42:45.244Z,16.69
2018-07-04T03:43:45.384Z,16.74
2018-07-04T03:44:45.552Z,16.83
2018-07-04T03:45:45.682Z,16.77
2018-07-04T03:46:45.823Z,16.77
2018-07-04T03:47:45.964Z,16.73
2018-07-04T03:48:46.127Z,16.80
2018-07-04T03:49:46.309Z,16.70
2018-07-04T03:50:46.418Z,16.72
2018-07-04T03:51:46.551Z,16.61
2018-07-04T03:52:46.692Z,16.54
2018-07-04T03:53:46.828Z,16.54
2018-07-04T03:54:47.053Z,16.52
2018-07-04T03:55:47.119Z,16.61
2018-07-04T03:56:47.257Z,16.47
2018-07-04T03:57:47.399Z,16.29
2018-07-04T03:58:47.565Z,16.25
2018-07-04T03:59:47.696Z,16.36
2018-07-04T04:00:47.836Z,16.42
2018-07-04T04:01:47.972Z,16.44
2018-07-04T04:02:48.101Z,16.49
2018-07-04T04:03:48.238Z,16.59
2018-07-04T04:04:48.373Z,16.46
2018-07-04T04:05:48.511Z,16.61
2018-07-04T04:06:48.672Z,16.73
2018-07-04T04:07:48.808Z,16.69
2018-07-04T04:08:48.941Z,16.79
2018-07-04T04:09:49.078Z,16.73
2018-07-04T04:10:49.211Z,16.79
2018-07-04T04:11:49.347Z,16.84
2018-07-04T04:12:49.519Z,16.83
2018-07-04T04:13:49.647Z,16.80
2018-07-04T04:14:49.787Z,16.83
2018-07-04T04:15:49.929Z,16.88
2018-07-04T04:16:50.065Z,16.88
2018-07-04T04:17:50.201Z,16.88
2018-07-04T04:18:50.343Z,16.82
2018-07-04T04:19:50.545Z,16.76
2018-07-04T04:20:50.642Z,16.67
2018-07-04T04:21:50.796Z,16.73
2018-07-04T04:22:50.967Z,16.82
2018-07-04T04:23:51.080Z,16.88
2018-07-04T04:24:51.217Z,16.80
2018-07-04T04:25:51.357Z,16.92
2018-07-04T04:26:51.512Z,16.83
2018-07-04T04:27:51.647Z,16.82
2018-07-04T04:28:51.785Z,16.79
2018-07-04T04:29:51.929Z,16.88
2018-07-04T04:30:52.064Z,16.74
2018-07-04T04:31:52.201Z,16.69
2018-07-04T04:32:52.348Z,16.58
2018-07-04T04:33:52.502Z,16.70
2018-07-04T04:34:52.703Z,16.57
2018-07-04T04:35:52.718Z,16.51
2018-07-04T04:36:52.881Z,16.55
2018-07-04T04:37:53.017Z,16.44
2018-07-04T04:38:53.159Z,16.36
2018-07-04T04:39:53.302Z,16.33
2018-07-04T04:40:53.473Z,16.21
2018-07-04T04:41:53.607Z,16.22
2018-07-04T04:42:53.754Z,16.10
2018-07-04T04:43:53.892Z,16.03
2018-07-04T04:44:54.055Z,15.98
2018-07-04T04:45:54.237Z,15.88
2018-07-04T04:46:54.377Z,15.98
2018-07-04T04:47:54.515Z,15.91
2018-07-04T04:48:54.679Z,16.00
2018-07-04T04:49:54.820Z,15.87
2018-07-04T04:50:54.952Z,15.87
2018-07-04T04:51:55.116Z,15.87
2018-07-04T04:52:55.254Z,16.14
2018-07-04T04:53:55.414Z,16.09
2018-07-04T04:54:55.548Z,16.09
2018-07-04T04:55:55.686Z,16.21
2018-07-04T04:56:55.852Z,16.16
2018-07-04T04:57:55.980Z,16.22
2018-07-04T04:58:56.119Z,16.14
2018-07-04T04:59:56.277Z,15.96
2018-07-04T05:00:56.406Z,16.00
2018-07-04T05:01:56.562Z,16.02
2018-07-04T05:02:56.691Z,16.16
2018-07-04T05:03:56.838Z,16.17
2018-07-04T05:04:56.965Z,16.14
2018-07-04T05:05:57.109Z,16.10
2018-07-04T05:06:57.274Z,16.25
2018-07-04T05:07:57.512Z,16.24
2018-07-04T05:08:57.593Z,16.22
2018-07-04T05:09:57.730Z,16.33
2018-07-04T05:10:57.888Z,16.42
2018-07-04T05:11:58.024Z,16.59
2018-07-04T05:12:58.162Z,16.69
2018-07-04T05:13:58.297Z,16.69
2018-07-04T05:14:58.530Z,16.51
2018-07-04T05:15:58.609Z,16.47
2018-07-04T05:16:58.744Z,16.51
2018-07-04T05:17:58.885Z,16.59
2018-07-04T05:18:59.034Z,16.73
2018-07-04T05:19:59.275Z,16.83
2018-07-04T05:20:59.311Z,16.88
2018-07-04T05:21:59.432Z,16.94
2018-07-04T05:22:59.582Z,16.74
2018-07-04T05:23:59.717Z,16.58
2018-07-04T05:24:59.854Z,16.57
2018-07-04T05:25:59.993Z,16.83
2018-07-04T05:27:00.141Z,16.84
2018-07-04T05:28:00.281Z,16.95
2018-07-04T05:29:00.415Z,16.98
2018-07-04T05:30:00.556Z,17.13
2018-07-04T05:31:00.703Z,17.19
2018-07-04T05:32:00.888Z,17.17
2018-07-04T05:33:01.025Z,17.14
2018-07-04T05:34:01.159Z,17.24
2018-07-04T05:35:01.378Z,17.27
2018-07-04T05:36:01.453Z,17.22
2018-07-04T05:37:01.597Z,17.31
2018-07-04T05:38:01.734Z,17.43
2018-07-04T05:39:01.881Z,17.37
2018-07-04T05:40:02.011Z,17.27
2018-07-04T05:41:02.154Z,17.30
2018-07-04T05:42:02.293Z,17.37
2018-07-04T05:43:02.492Z,17.34
2018-07-04T05:44:02.569Z,17.35
2018-07-04T05:45:02.702Z,17.32
2018-07-04T05:46:02.892Z,17.45
2018-07-04T05:47:03.002Z,17.47
2018-07-04T05:48:03.154Z,17.59
2018-07-04T05:49:03.285Z,17.59
2018-07-04T05:50:03.414Z,17.68
2018-07-04T05:51:03.576Z,17.75
2018-07-04T05:52:03.786Z,17.81
2018-07-04T05:53:03.802Z,17.90
2018-07-04T05:54:03.935Z,17.75
2018-07-04T05:55:04.083Z,17.73
2018-07-04T05:56:04.221Z,17.87
2018-07-04T05:57:04.385Z,17.94
2018-07-04T05:58:04.530Z,17.93
2018-07-04T05:59:04.663Z,18.05
2018-07-04T06:00:04.806Z,18.21
2018-07-04T06:01:04.947Z,18.11
2018-07-04T06:02:05.092Z,18.20
2018-07-04T06:03:05.223Z,18.33
2018-07-04T06:04:05.364Z,18.36
2018-07-04T06:05:05.504Z,18.38
2018-07-04T06:06:05.648Z,18.49
2018-07-04T06:07:05.794Z,18.54
2018-07-04T06:08:05.929Z,18.63
2018-07-04T06:09:06.072Z,18.60
2018-07-04T06:10:06.201Z,18.45
2018-07-04T06:11:06.351Z,18.56
2018-07-04T06:12:06.489Z,18.61
2018-07-04T06:13:06.633Z,18.68
2018-07-04T06:14:06.766Z,18.74
2018-07-04T06:15:06.936Z,18.68
2018-07-04T06:16:07.050Z,18.68
2018-07-04T06:17:07.187Z,18.82
2018-07-04T06:18:07.325Z,18.79
2018-07-04T06:19:07.467Z,18.96
2018-07-04T06:20:07.611Z,19.04
2018-07-04T06:21:07.751Z,18.98
2018-07-04T06:22:07.891Z,19.04
2018-07-04T06:23:08.037Z,19.15
2018-07-04T06:24:08.171Z,19.12
2018-07-04T06:25:08.320Z,19.16
2018-07-04T06:26:08.461Z,19.20
2018-07-04T06:27:08.600Z,19.19
2018-07-04T06:28:08.741Z,19.23
2018-07-04T06:29:08.880Z,19.31
2018-07-04T06:30:09.040Z,19.37
2018-07-04T06:31:09.157Z,19.32
2018-07-04T06:32:09.302Z,19.38
2018-07-04T06:33:09.439Z,19.37
2018-07-04T06:34:09.582Z,19.41
2018-07-04T06:35:09.726Z,19.47
2018-07-04T06:36:09.868Z,19.45
2018-07-04T06:37:10.010Z,19.50
2018-07-04T06:38:10.149Z,19.54
2018-07-04T06:39:10.361Z,19.56
2018-07-04T06:40:10.441Z,19.52
2018-07-04T06:41:10.581Z,19.49
2018-07-04T06:42:10.725Z,19.60
2018-07-04T06:43:10.860Z,19.63
2018-07-04T06:44:11.004Z,19.67
2018-07-04T06:45:11.152Z,19.60
2018-07-04T06:46:11.291Z,19.47
2018-07-04T06:47:11.429Z,19.38
2018-07-04T06:48:11.568Z,19.64
2018-07-04T06:49:11.782Z,19.64
2018-07-04T06:50:11.851Z,19.68
2018-07-04T06:51:11.999Z,19.74
2018-07-04T06:52:12.143Z,19.84
2018-07-04T06:53:12.284Z,19.89
2018-07-04T06:54:12.466Z,19.89
2018-07-04T06:55:12.572Z,19.89
2018-07-04T06:56:12.741Z,19.92
2018-07-04T06:57:12.890Z,19.82
2018-07-04T06:58:13.077Z,19.92
2018-07-04T06:59:13.208Z,19.94
2018-07-04T07:00:13.349Z,20.05
2018-07-04T07:01:13.491Z,19.96
2018-07-04T07:02:13.645Z,20.12
2018-07-04T07:03:13.782Z,20.14
2018-07-04T07:04:13.944Z,20.23
2018-07-04T07:05:14.080Z,20.18
2018-07-04T07:06:14.245Z,20.17
2018-07-04T07:07:14.380Z,20.30
2018-07-04T07:08:14.571Z,20.29
2018-07-04T07:09:14.735Z,20.27
2018-07-04T07:10:14.749Z,20.17
2018-07-04T07:11:14.892Z,20.18
2018-07-04T07:12:15.031Z,20.32
2018-07-04T07:13:15.205Z,20.37
2018-07-04T07:14:15.341Z,20.36
2018-07-04T07:15:15.493Z,20.36
2018-07-04T07:16:15.630Z,20.37
2018-07-04T07:17:15.816Z,20.26
2018-07-04T07:18:15.960Z,20.23
2018-07-04T07:19:16.104Z,20.36
2018-07-04T07:20:16.249Z,20.48
2018-07-04T07:21:17.263Z,20.53
2018-07-04T07:22:16.529Z,20.39
2018-07-04T07:23:16.668Z,20.49
2018-07-04T07:24:16.806Z,20.46
2018-07-04T07:25:17.014Z,20.49
2018-07-04T07:26:17.095Z,20.71
2018-07-04T07:27:17.237Z,20.68
2018-07-04T07:28:17.394Z,20.70
2018-07-04T07:29:17.573Z,20.79
2018-07-04T07:30:17.672Z,20.83
2018-07-04T07:31:17.821Z,20.90
2018-07-04T07:32:17.995Z,20.98
2018-07-04T07:33:18.123Z,20.95
2018-07-04T07:34:18.431Z,21.14
2018-07-04T07:35:18.414Z,21.19
2018-07-04T07:36:18.574Z,21.25
2018-07-04T07:37:18.709Z,21.35
2018-07-04T07:38:18.849Z,21.40
2018-07-04T07:39:18.989Z,21.37
2018-07-04T07:40:19.157Z,21.40
2018-07-04T07:41:19.293Z,21.47
2018-07-04T07:42:19.433Z,21.41
2018-07-04T07:43:19.571Z,21.48
2018-07-04T07:44:19.757Z,21.62
2018-07-04T07:45:19.888Z,21.65
2018-07-04T07:46:20.029Z,21.73
2018-07-04T07:47:20.190Z,21.75
2018-07-04T07:48:20.926Z,21.73
2018-07-04T07:50:52.346Z,21.93
2018-07-04T07:51:52.516Z,22.07
2018-07-04T07:52:52.664Z,22.13
2018-07-04T07:53:52.805Z,22.15
2018-07-04T07:54:52.942Z,22.23
2018-07-04T07:55:53.095Z,22.38
2018-07-04T07:56:53.239Z,22.43
2018-07-04T07:57:53.380Z,22.43
2018-07-04T07:58:53.554Z,22.49
2018-07-04T07:59:53.702Z,22.52
2018-07-04T08:00:53.864Z,22.52
2018-07-04T08:01:54.006Z,22.56
2018-07-04T08:02:54.144Z,22.52
2018-07-04T08:03:54.282Z,22.59
2018-07-04T08:04:54.450Z,22.59
2018-07-04T08:05:54.641Z,22.81
2018-07-04T08:06:54.735Z,22.89
2018-07-04T08:07:54.882Z,22.86
2018-07-04T08:08:55.024Z,22.95
2018-07-04T08:09:55.164Z,22.99
2018-07-04T08:10:55.326Z,22.96
2018-07-04T08:11:55.459Z,23.14
2018-07-04T08:12:55.604Z,23.08
2018-07-04T08:13:55.782Z,23.18
2018-07-04T08:14:55.904Z,23.31
2018-07-04T08:15:56.082Z,23.37
2018-07-04T08:16:56.220Z,23.42
2018-07-04T08:17:56.357Z,23.45
2018-07-04T08:18:56.496Z,23.52
2018-07-04T08:19:56.664Z,23.60
2018-07-04T08:20:56.801Z,23.59
2018-07-04T08:21:56.939Z,23.60
2018-07-04T08:22:57.085Z,23.66
2018-07-04T08:23:57.248Z,23.78
2018-07-04T08:24:57.391Z,23.82
2018-07-04T08:25:57.537Z,23.84
2018-07-04T08:26:57.678Z,23.91
2018-07-04T08:27:57.832Z,23.97
2018-07-04T08:28:57.967Z,23.92
2018-07-04T08:29:58.117Z,24.00
2018-07-04T08:30:58.269Z,24.16
2018-07-04T08:31:58.464Z,24.21
2018-07-04T08:32:58.550Z,24.23
2018-07-04T08:33:58.688Z,24.38
2018-07-04T08:34:58.852Z,24.38
2018-07-04T08:35:58.985Z,24.44
2018-07-04T08:36:59.124Z,24.52
2018-07-04T08:37:59.269Z,24.59
2018-07-04T08:38:59.593Z,24.56
2018-07-04T08:39:59.587Z,24.62
2018-07-04T08:40:59.726Z,24.75
2018-07-04T08:41:59.872Z,24.75
2018-07-04T08:43:00.027Z,24.76
2018-07-04T08:44:00.166Z,24.84
2018-07-04T08:45:00.310Z,24.78
2018-07-04T08:46:00.455Z,24.79
2018-07-04T08:47:00.622Z,24.81
2018-07-04T08:48:00.740Z,24.85
2018-07-04T08:49:00.882Z,24.84
2018-07-04T08:50:01.044Z,24.86
2018-07-04T08:51:01.184Z,24.75
2018-07-04T08:52:01.331Z,24.76
2018-07-04T08:53:01.477Z,24.86
2018-07-04T08:54:01.596Z,24.96
2018-07-04T08:55:01.735Z,24.96
2018-07-04T08:56:01.872Z,24.93
2018-07-04T08:57:02.017Z,25.01
2018-07-04T08:58:02.208Z,25.08
2018-07-04T08:59:02.328Z,24.99
2018-07-04T09:00:02.474Z,25.03
2018-07-04T09:01:02.622Z,25.03
2018-07-04T09:02:02.784Z,25.06
2018-07-04T09:03:02.922Z,25.09
2018-07-04T09:04:03.064Z,25.06
2018-07-04T09:05:03.209Z,25.12
2018-07-04T09:06:03.403Z,25.09
2018-07-04T09:07:03.495Z,25.08
2018-07-04T09:08:03.650Z,25.09
2018-07-04T09:09:03.875Z,25.08
2018-07-04T09:10:03.957Z,25.08
2018-07-04T09:11:04.103Z,25.04
2018-07-04T09:12:04.245Z,25.12
2018-07-04T09:13:04.407Z,25.08
2018-07-04T09:14:04.542Z,25.03
2018-07-04T09:15:04.683Z,25.08
2018-07-04T09:16:04.827Z,25.08
2018-07-04T09:17:05.058Z,25.15
2018-07-04T09:18:05.146Z,25.21
2018-07-04T09:19:05.287Z,25.28
2018-07-04T09:20:05.430Z,25.36
2018-07-04T09:21:05.620Z,25.52
2018-07-04T09:22:05.797Z,25.52
2018-07-04T09:23:05.944Z,25.61
2018-07-04T09:24:06.090Z,25.70
2018-07-04T09:25:06.249Z,25.71
2018-07-04T09:26:06.437Z,25.66
2018-07-04T09:27:06.579Z,25.73
2018-07-04T09:28:06.726Z,25.73
2018-07-04T09:29:06.894Z,25.74
2018-07-04T09:30:07.081Z,25.82
2018-07-04T09:31:07.222Z,25.86
2018-07-04T09:32:07.364Z,26.00
2018-07-04T09:33:07.537Z,26.03
2018-07-04T09:34:07.674Z,26.01
2018-07-04T09:35:07.818Z,26.10
2018-07-04T09:36:07.952Z,26.16
2018-07-04T09:37:08.117Z,26.19
2018-07-04T09:38:08.259Z,26.19
2018-07-04T09:39:08.403Z,26.26
2018-07-04T09:40:08.553Z,26.23
2018-07-04T09:41:08.713Z,26.24
2018-07-04T09:42:08.853Z,26.26
2018-07-04T09:43:08.991Z,26.24
2018-07-04T09:44:09.137Z,26.28
2018-07-04T09:45:09.368Z,26.46
2018-07-04T09:46:09.436Z,26.46
2018-07-04T09:47:09.576Z,26.49
2018-07-04T09:48:09.739Z,26.57
2018-07-04T09:49:09.903Z,26.65
2018-07-04T09:50:10.065Z,26.68
2018-07-04T09:51:10.206Z,26.75
2018-07-04T09:52:10.363Z,26.79
2018-07-04T09:53:10.501Z,26.83
2018-07-04T09:54:11.396Z,26.88
2018-07-04T09:55:10.817Z,26.95
2018-07-04T09:56:10.963Z,26.90
2018-07-04T09:57:11.142Z,26.93
2018-07-04T09:58:11.280Z,26.98
2018-07-04T09:59:11.427Z,27.04
2018-07-04T10:00:11.574Z,27.12
2018-07-04T10:01:11.703Z,27.07
2018-07-04T10:02:11.848Z,27.19
2018-07-04T10:03:12.004Z,27.25
2018-07-04T10:04:12.145Z,27.31
2018-07-04T10:05:12.285Z,27.42
2018-07-04T10:06:12.423Z,27.52
2018-07-04T10:07:12.583Z,27.60
2018-07-04T10:08:12.728Z,27.57
2018-07-04T10:09:12.914Z,27.58
2018-07-04T10:10:13.077Z,27.78
2018-07-04T10:11:13.215Z,27.78
2018-07-04T10:12:13.359Z,27.85
2018-07-04T10:13:13.517Z,27.85
2018-07-04T10:14:13.638Z,27.82
2018-07-04T10:15:13.797Z,27.95
2018-07-04T10:16:13.947Z,27.95
2018-07-04T10:17:14.096Z,28.00
2018-07-04T10:18:14.273Z,28.01
2018-07-04T10:19:14.385Z,27.94
2018-07-04T10:20:14.539Z,28.10
2018-07-04T10:21:14.692Z,28.00
2018-07-04T10:22:14.835Z,28.05
2018-07-04T10:23:14.995Z,28.00
2018-07-04T10:24:15.133Z,28.15
2018-07-04T10:25:15.286Z,27.80
2018-07-04T10:26:15.423Z,27.83
2018-07-04T10:27:15.570Z,27.83
2018-07-04T10:28:15.720Z,27.93
2018-07-04T10:29:15.868Z,27.97
2018-07-04T10:30:16.013Z,27.95
2018-07-04T10:31:16.168Z,27.94
2018-07-04T10:32:16.316Z,27.87
2018-07-04T10:33:16.478Z,27.95
2018-07-04T10:34:16.659Z,27.94
2018-07-04T10:35:16.763Z,27.98
2018-07-04T10:36:16.908Z,27.98
2018-07-04T10:37:17.065Z,27.88
2018-07-04T10:38:17.204Z,27.94
2018-07-04T10:39:17.351Z,27.83
2018-07-04T10:40:17.497Z,27.82
2018-07-04T10:41:17.644Z,27.97
2018-07-04T10:42:17.783Z,28.00
2018-07-04T10:43:17.932Z,27.94
2018-07-04T10:44:18.079Z,27.87
2018-07-04T10:45:18.221Z,27.85
2018-07-04T10:46:18.358Z,27.95
2018-07-04T10:47:18.506Z,27.95
2018-07-04T10:48:18.682Z,27.93
2018-07-04T10:49:18.832Z,27.94
2018-07-04T10:50:18.983Z,28.00
2018-07-04T10:51:19.145Z,27.88
2018-07-04T10:52:19.294Z,28.03
2018-07-04T10:53:19.442Z,28.07
2018-07-04T10:54:19.585Z,28.00
2018-07-04T10:55:19.731Z,28.09
2018-07-04T10:56:19.909Z,28.07
2018-07-04T10:57:20.044Z,28.00
2018-07-04T10:58:20.185Z,28.03
2018-07-04T10:59:20.359Z,28.09
2018-07-04T11:00:20.489Z,28.05
2018-07-04T11:01:20.637Z,28.07
2018-07-04T11:02:20.806Z,28.12
2018-07-04T11:03:20.953Z,28.15
2018-07-04T11:04:21.104Z,28.10
2018-07-04T11:05:21.253Z,28.19
2018-07-04T11:06:21.388Z,28.31
2018-07-04T11:07:21.530Z,28.31
2018-07-04T11:08:21.698Z,28.34
2018-07-04T11:09:21.839Z,28.34
2018-07-04T11:10:21.983Z,28.43
2018-07-04T11:11:22.173Z,28.38
2018-07-04T11:12:22.296Z,28.50
2018-07-04T11:13:22.437Z,28.56
2018-07-04T11:14:22.593Z,28.57
2018-07-04T11:15:22.734Z,28.57
2018-07-04T11:16:23.466Z,28.57
2018-07-04T11:17:22.985Z,28.44
2018-07-04T11:18:23.135Z,28.42
2018-07-04T11:19:23.283Z,28.37
2018-07-04T11:20:23.429Z,28.30
2018-07-04T11:21:23.568Z,28.28
2018-07-04T11:22:23.752Z,28.13
2018-07-04T11:23:23.888Z,28.07
2018-07-04T11:24:24.031Z,28.06
2018-07-04T11:25:24.179Z,28.12
2018-07-04T11:26:24.328Z,28.10
2018-07-04T11:27:24.478Z,28.17
2018-07-04T11:28:24.682Z,28.32
2018-07-04T11:29:24.767Z,28.32
2018-07-04T11:30:24.911Z,28.44
2018-07-04T11:31:25.055Z,28.43
2018-07-04T11:32:25.201Z,28.53
2018-07-04T11:33:25.349Z,28.61
2018-07-04T11:34:25.488Z,28.72
2018-07-04T11:35:25.637Z,28.80
2018-07-04T11:36:25.780Z,28.89
2018-07-04T11:37:25.926Z,28.89
2018-07-04T11:38:26.092Z,29.00
2018-07-04T11:39:26.221Z,28.98
2018-07-04T11:40:26.373Z,29.09
2018-07-04T11:41:26.520Z,29.00
2018-07-04T11:42:26.664Z,29.13
2018-07-04T11:43:26.811Z,29.19
2018-07-04T11:44:26.956Z,29.21
2018-07-04T11:45:27.103Z,29.22
2018-07-04T11:46:27.249Z,29.43
2018-07-04T11:47:27.397Z,29.36
2018-07-04T11:48:27.553Z,29.34
2018-07-04T11:49:27.702Z,29.39
2018-07-04T11:50:27.847Z,29.36
2018-07-04T11:51:28.002Z,29.43
2018-07-04T11:52:28.156Z,29.36
2018-07-04T11:53:28.299Z,29.22
2018-07-04T11:54:28.440Z,29.27
2018-07-04T11:55:28.590Z,29.36
2018-07-04T11:56:28.794Z,29.36
2018-07-04T11:57:28.877Z,29.24
2018-07-04T11:58:29.021Z,29.24
2018-07-04T11:59:29.172Z,29.24
2018-07-04T12:00:29.319Z,29.24
2018-07-04T12:01:29.465Z,29.22
2018-07-04T12:02:29.610Z,29.27
2018-07-04T12:03:29.762Z,29.27
2018-07-04T12:04:29.907Z,29.22
2018-07-04T12:05:30.142Z,29.19
2018-07-04T12:06:30.206Z,29.29
2018-07-04T12:07:30.357Z,29.18
2018-07-04T12:08:30.499Z,29.17
2018-07-04T12:09:30.647Z,29.24
2018-07-04T12:10:30.795Z,29.10
2018-07-04T12:11:30.950Z,29.10
2018-07-04T12:12:31.093Z,29.10
2018-07-04T12:13:31.234Z,29.13
2018-07-04T12:14:31.380Z,29.06
2018-07-04T12:15:31.531Z,29.06
2018-07-04T12:16:31.685Z,29.13
2018-07-04T12:17:31.830Z,29.13
2018-07-04T12:18:31.977Z,29.22
2018-07-04T12:19:32.127Z,29.27
2018-07-04T12:20:32.265Z,29.29
2018-07-04T12:21:32.414Z,29.44
2018-07-04T12:22:32.558Z,29.41
2018-07-04T12:23:32.710Z,29.58
2018-07-04T12:24:32.853Z,29.59
2018-07-04T12:25:32.996Z,29.76
2018-07-04T12:26:33.152Z,29.80
2018-07-04T12:27:33.300Z,29.84
2018-07-04T12:28:33.451Z,29.93
2018-07-04T12:29:33.595Z,29.98
2018-07-04T12:30:33.743Z,30.05
2018-07-04T12:31:33.881Z,30.15
2018-07-04T12:32:34.029Z,30.11
2018-07-04T12:33:34.175Z,30.10
2018-07-04T12:34:34.320Z,30.11
2018-07-04T12:35:34.487Z,30.15
2018-07-04T12:36:34.636Z,30.20
2018-07-04T12:37:34.818Z,30.10
2018-07-04T12:38:34.925Z,30.17
2018-07-04T12:39:35.095Z,30.26
2018-07-04T12:40:35.293Z,30.18
2018-07-04T12:41:35.395Z,30.26
2018-07-04T12:42:35.538Z,30.26
2018-07-04T12:43:35.862Z,30.43
2018-07-04T12:44:35.850Z,30.35
2018-07-04T12:45:39.515Z,30.55
2018-07-04T12:46:36.165Z,30.58
2018-07-04T12:47:36.434Z,30.64
2018-07-04T12:48:36.551Z,30.71
2018-07-04T12:49:36.578Z,30.67
2018-07-04T12:50:36.724Z,30.60
2018-07-04T12:51:36.871Z,30.64
2018-07-04T12:52:37.089Z,30.67
2018-07-04T12:53:37.112Z,30.68
2018-07-04T12:54:37.303Z,30.65
2018-07-04T12:55:37.417Z,30.60
2018-07-04T12:56:37.561Z,30.33
2018-07-04T12:57:37.706Z,30.33